Capetan Vassilis — C6S2085 — position and weather

sailwx.info

Track history (hours):
 
Tides and Currents Weather Stations Pressure Air Temp Water Temp Dewpoint Dewpoint Depression Visibility Wind Speed Wind Dir Waves Ship Positions

Capetan Vassilis

Last reported at 2015-Mar-13 23:32 UTC. Time now 2015-Mar-30 20:07 UTC.
Position N 32°13' E 034°36'.
Warning: this ship's position is 16 days out of date.

Length 191 m; draft 7.8 m.

MMSI: 311552000.

Date/timePositionNaut miles runAvg speedWind from/ knotsBaromVisibWave heightAir tempDewpointWater temp
2015-Mar-13 23:32N 32°13' E 034°36'1313.4
2015-Mar-13 22:33N 32°25' E 034°40'1413.5
2015-Mar-13 21:33N 32°38' E 034°44'6 6.3
2015-Mar-13 20:33N 32°45' E 034°46'1 1.1
2015-Mar-13 19:33N 32°46' E 034°46'2 2.2
2015-Mar-13 18:27N 32°48' E 034°46'4 4.5
2015-Mar-13 17:32N 32°52' E 034°47'  
2015-Mar-11 09:08N 32°53' E 034°53'813.0
2015-Mar-11 08:31N 32°55' E 034°44'16013.2
2015-Mar-10 20:26N 33°23' E 031°36'3913.7
2015-Mar-10 17:33N 33°29' E 030°49'  
2015-Mar-04 17:27N 36°04' W 005°08'1112.9
2015-Mar-04 16:34N 36°04' W 005°22'3 2.6
2015-Mar-04 15:20N 36°06' W 005°25'0 0.0
2015-Mar-04 14:32N 36°06' W 005°25'0 0.0
2015-Mar-04 13:32N 36°06' W 005°25'0 0.0
2015-Mar-04 12:20N 36°06' W 005°25'0 0.2
2015-Mar-04 11:29N 36°06' W 005°25'0 0.1
2015-Mar-04 10:29N 36°06' W 005°25'0 0.0
2015-Mar-04 09:32N 36°06' W 005°25'1 1.3
2015-Mar-04 08:33N 36°05' W 005°24'9 8.7
2015-Mar-04 07:33N 36°04' W 005°13'5 2.2
2015-Mar-04 05:28N 36°04' W 005°07'1 1.5
2015-Mar-04 04:32N 36°05' W 005°09'1 1.4
2015-Mar-04 03:32N 36°05' W 005°11'1 1.3
2015-Mar-04 02:34N 36°05' W 005°12'1 1.1
2015-Mar-04 01:33N 36°05' W 005°14'2 2.0
2015-Mar-04 00:33N 36°04' W 005°16'6 6.0
2015-Mar-03 23:33N 36°05' W 005°23'  
Track history (hours):
 
Tides and Currents Weather Stations Pressure Air Temp Water Temp Dewpoint Dewpoint Depression Visibility Wind Speed Wind Dir Waves Ship Positions

Capetan Vassilis

Last reported at 2015-Mar-13 23:32 UTC. Time now 2015-Mar-30 20:07 UTC.
Position N 32°13' E 034°36'.
Warning: this ship's position is 16 days out of date.

Length 191 m; draft 7.8 m.

MMSI: 311552000.

Date/timePositionNaut miles runAvg speedWind from/ knotsBaromVisibWave heightAir tempDewpointWater temp
2015-Mar-13 23:32N 32°13' E 034°36'1313.4
2015-Mar-13 22:33N 32°25' E 034°40'1413.5
2015-Mar-13 21:33N 32°38' E 034°44'6 6.3
2015-Mar-13 20:33N 32°45' E 034°46'1 1.1
2015-Mar-13 19:33N 32°46' E 034°46'2 2.2
2015-Mar-13 18:27N 32°48' E 034°46'4 4.5
2015-Mar-13 17:32N 32°52' E 034°47'  
2015-Mar-11 09:08N 32°53' E 034°53'813.0
2015-Mar-11 08:31N 32°55' E 034°44'16013.2
2015-Mar-10 20:26N 33°23' E 031°36'3913.7
2015-Mar-10 17:33N 33°29' E 030°49'  
2015-Mar-04 17:27N 36°04' W 005°08'1112.9
2015-Mar-04 16:34N 36°04' W 005°22'3 2.6
2015-Mar-04 15:20N 36°06' W 005°25'0 0.0
2015-Mar-04 14:32N 36°06' W 005°25'0 0.0
2015-Mar-04 13:32N 36°06' W 005°25'0 0.0
2015-Mar-04 12:20N 36°06' W 005°25'0 0.2
2015-Mar-04 11:29N 36°06' W 005°25'0 0.1
2015-Mar-04 10:29N 36°06' W 005°25'0 0.0
2015-Mar-04 09:32N 36°06' W 005°25'1 1.3
2015-Mar-04 08:33N 36°05' W 005°24'9 8.7
2015-Mar-04 07:33N 36°04' W 005°13'5 2.2
2015-Mar-04 05:28N 36°04' W 005°07'1 1.5
2015-Mar-04 04:32N 36°05' W 005°09'1 1.4
2015-Mar-04 03:32N 36°05' W 005°11'1 1.3
2015-Mar-04 02:34N 36°05' W 005°12'1 1.1
2015-Mar-04 01:33N 36°05' W 005°14'2 2.0
2015-Mar-04 00:33N 36°04' W 005°16'6 6.0
2015-Mar-03 23:33N 36°05' W 005°23'  

Dump ship's entire track history